Time;durP1;ratioP1;P1;durP2;ratioP2;P2;SDS_P1;SDS_P2;PMS_P1;PMS_P2;Temp;Humidity;BMP_temperature;BMP_pressure;BME280_temperature;BME280_humidity;BME280_pressure;Samples;Min_cycle;Max_cycle;Signal;HPM_P1;HPM_P2
2022/06/06 00:01:57;;;;;;;5.78;3.58;;;16.40;99.90;;;;;;4993367;28;20046;-65
2022/06/06 00:04:24;;;;;;;7.35;2.80;;;16.30;99.90;;;;;;4983180;28;20042;-66
2022/06/06 00:06:52;;;;;;;6.40;3.17;;;16.20;99.90;;;;;;4974024;28;20454;-66
2022/06/06 00:09:18;;;;;;;5.50;2.95;;;16.10;99.90;;;;;;4973971;28;20066;-66
2022/06/06 00:11:44;;;;;;;4.43;3.58;;;16.00;99.90;;;;;;4973925;28;20380;-65
2022/06/06 00:14:12;;;;;;;7.65;3.10;;;15.90;99.90;;;;;;4974038;28;20080;-66
2022/06/06 00:16:38;;;;;;;6.15;3.63;;;16.00;99.90;;;;;;4973931;28;20038;-65
2022/06/06 00:19:04;;;;;;;9.90;4.35;;;15.90;99.90;;;;;;4973904;28;20042;-66
2022/06/06 00:21:31;;;;;;;6.85;3.60;;;16.00;99.90;;;;;;4973933;28;20046;-66
2022/06/06 00:23:59;;;;;;;6.32;3.22;;;15.90;99.90;;;;;;4973997;28;20053;-66
2022/06/06 00:26:27;;;;;;;3.55;2.85;;;15.70;99.90;;;;;;4973796;28;20031;-66
2022/06/06 00:28:53;;;;;;;5.35;2.45;;;15.70;99.90;;;;;;4973854;28;20096;-66
2022/06/06 00:36:49;;;;;;;15.02;3.35;;;15.70;99.90;;;;;;4973564;28;20070;-66
2022/06/06 00:39:17;;;;;;;4.80;3.55;;;15.70;99.90;;;;;;4973773;28;20580;-66
2022/06/06 00:41:47;;;;;;;7.93;3.10;;;15.80;99.90;;;;;;4973570;28;20047;-66
2022/06/06 00:44:19;;;;;;;6.15;3.20;;;15.90;99.90;;;;;;4973489;28;20675;-66
2022/06/06 00:46:55;;;;;;;5.43;3.10;;;15.90;99.90;;;;;;4973555;28;20062;-66
2022/06/06 00:49:49;;;;;;;4.88;3.38;;;16.00;99.90;;;;;;4973560;28;20074;-65
2022/06/06 00:52:19;;;;;;;5.05;3.03;;;15.90;99.90;;;;;;4973373;28;20050;-66
2022/06/06 00:54:46;;;;;;;6.03;3.45;;;15.80;99.90;;;;;;4973511;28;20043;-66
2022/06/06 00:57:18;;;;;;;3.95;3.42;;;15.70;99.90;;;;;;4973482;28;20041;-66
2022/06/06 00:59:45;;;;;;;7.57;2.97;;;15.60;99.90;;;;;;4973848;28;20480;-66
2022/06/06 01:02:13;;;;;;;5.10;3.30;;;15.40;99.90;;;;;;4977138;28;20062;-66
2022/06/06 01:04:40;;;;;;;4.88;2.95;;;15.40;99.90;;;;;;4976805;28;20047;-66
2022/06/06 01:07:09;;;;;;;4.70;3.00;;;15.60;99.90;;;;;;4977011;28;20053;-66
2022/06/06 01:09:36;;;;;;;6.22;2.83;;;15.70;99.90;;;;;;4977128;28;20101;-66
2022/06/06 01:12:10;;;;;;;4.40;2.80;;;15.90;99.90;;;;;;4976745;28;20046;-66
2022/06/06 01:14:40;;;;;;;7.63;3.20;;;16.00;99.90;;;;;;4976366;28;20039;-66
2022/06/06 01:17:24;;;;;;;5.45;3.13;;;16.00;99.90;;;;;;4977021;28;20031;-66
2022/06/06 01:19:54;;;;;;;9.10;3.63;;;15.90;99.90;;;;;;4976821;28;20047;-66
2022/06/06 01:22:48;;;;;;;5.75;3.50;;;15.70;99.90;;;;;;4976712;28;20573;-66
2022/06/06 01:25:32;;;;;;;4.75;3.13;;;15.60;99.90;;;;;;4976648;28;20049;-66
2022/06/06 01:28:35;;;;;;;7.22;3.33;;;15.30;99.90;;;;;;4976570;28;20070;-66
2022/06/06 01:31:07;;;;;;;4.82;3.25;;;15.30;99.90;;;;;;4976520;28;20042;-66
2022/06/06 01:33:51;;;;;;;7.68;3.22;;;15.40;99.90;;;;;;4976520;28;20051;-66
2022/06/06 01:36:17;;;;;;;7.10;3.30;;;15.40;99.90;;;;;;4976277;28;20050;-66
2022/06/06 01:38:43;;;;;;;4.90;3.30;;;15.30;99.90;;;;;;4976302;28;20043;-66
2022/06/06 01:41:13;;;;;;;4.57;3.42;;;15.40;99.90;;;;;;4976334;28;20513;-65
2022/06/06 01:43:57;;;;;;;5.80;2.70;;;15.40;99.90;;;;;;4976109;28;20449;-65
2022/06/06 01:46:28;;;;;;;6.18;2.67;;;15.50;99.90;;;;;;4976114;28;20410;-65
2022/06/06 01:48:58;;;;;;;6.20;3.45;;;15.50;99.90;;;;;;4976136;28;20042;-66
2022/06/06 01:51:27;;;;;;;5.55;3.28;;;15.60;99.90;;;;;;4976096;28;20035;-66
2022/06/06 01:53:54;;;;;;;5.80;3.22;;;15.50;99.90;;;;;;4976159;28;20053;-66
2022/06/06 01:56:33;;;;;;;5.35;3.50;;;15.40;99.90;;;;;;4976149;28;20042;-66
2022/06/06 01:58:59;;;;;;;4.35;3.17;;;15.40;99.90;;;;;;4975939;28;20039;-66
2022/06/06 02:01:29;;;;;;;6.30;3.30;;;15.40;99.90;;;;;;4975896;28;20049;-65
2022/06/06 02:03:55;;;;;;;5.57;3.50;;;15.40;99.90;;;;;;4975870;28;20038;-66
2022/06/06 02:06:21;;;;;;;8.32;3.67;;;15.40;99.90;;;;;;4975750;28;20048;-66
2022/06/06 02:08:47;;;;;;;9.20;3.70;;;15.30;99.90;;;;;;4983198;28;20120;-66
2022/06/06 02:11:13;;;;;;;4.70;3.22;;;15.30;99.90;;;;;;4992001;28;20526;-66
2022/06/06 02:13:39;;;;;;;4.70;3.25;;;15.20;99.90;;;;;;4993688;28;20457;-66
2022/06/06 02:16:05;;;;;;;5.45;3.00;;;15.40;99.90;;;;;;4995064;28;20038;-66
2022/06/06 02:18:31;;;;;;;4.25;3.60;;;15.50;99.90;;;;;;4995152;28;20030;-66
2022/06/06 02:20:57;;;;;;;6.82;3.75;;;15.60;99.90;;;;;;4995023;28;20056;-66
2022/06/06 02:23:22;;;;;;;8.70;3.50;;;15.70;99.90;;;;;;4994690;28;20129;-65
2022/06/06 02:25:48;;;;;;;7.03;3.53;;;15.80;99.90;;;;;;4994708;28;20050;-65
2022/06/06 02:28:15;;;;;;;6.70;3.00;;;15.80;99.90;;;;;;4994817;28;20038;-65
2022/06/06 02:30:41;;;;;;;6.82;3.25;;;15.80;99.90;;;;;;4994594;28;20045;-65
2022/06/06 02:33:07;;;;;;;4.32;2.92;;;15.80;99.90;;;;;;4994451;28;20062;-65
2022/06/06 02:35:38;;;;;;;5.47;3.30;;;15.60;99.90;;;;;;4994408;28;20559;-65
2022/06/06 02:38:04;;;;;;;6.05;2.97;;;15.50;99.90;;;;;;4994589;28;20101;-65
2022/06/06 02:40:30;;;;;;;5.43;3.17;;;15.60;99.90;;;;;;4994568;28;20046;-66
2022/06/06 02:42:57;;;;;;;6.10;3.10;;;15.50;99.90;;;;;;4994610;28;20188;-65
2022/06/06 02:45:23;;;;;;;11.82;3.17;;;15.30;99.90;;;;;;4994458;28;20038;-65
2022/06/06 02:47:52;;;;;;;9.02;3.92;;;15.40;99.90;;;;;;4990862;28;20103;-65
2022/06/06 02:50:20;;;;;;;6.85;3.72;;;15.50;99.90;;;;;;4975015;28;20125;-65
2022/06/06 02:52:46;;;;;;;8.18;3.95;;;15.40;99.90;;;;;;4974939;28;20268;-65
2022/06/06 02:55:13;;;;;;;4.72;3.17;;;15.40;99.90;;;;;;4975011;28;20051;-66
2022/06/06 02:57:42;;;;;;;5.28;3.67;;;15.40;99.90;;;;;;4974897;28;20146;-65
2022/06/06 03:00:13;;;;;;;5.85;3.17;;;15.40;99.90;;;;;;4974950;28;20053;-65
2022/06/06 03:02:39;;;;;;;8.52;3.50;;;15.30;99.90;;;;;;4974823;28;20045;-65
2022/06/06 03:05:07;;;;;;;5.10;3.58;;;15.30;99.90;;;;;;4974813;28;20046;-66
2022/06/06 03:08:02;;;;;;;7.50;4.10;;;15.40;99.90;;;;;;4974546;28;20043;-65
2022/06/06 03:10:35;;;;;;;7.18;3.40;;;15.40;99.90;;;;;;4974510;28;20039;-65
2022/06/06 03:13:36;;;;;;;6.43;3.75;;;15.20;99.90;;;;;;4974529;28;20051;-66
2022/06/06 03:23:20;;;;;;;7.55;4.15;;;15.10;99.90;;;;;;4974358;28;20034;-66
2022/06/06 03:26:01;;;;;;;7.75;4.20;;;15.20;99.90;;;;;;4974340;28;20073;-66
2022/06/06 03:29:11;;;;;;;4.50;3.75;;;15.20;99.90;;;;;;4974595;28;20049;-65
2022/06/06 03:31:47;;;;;;;5.43;3.60;;;15.40;99.90;;;;;;4959451;28;20117;-65
2022/06/06 03:34:28;;;;;;;6.55;3.95;;;15.40;99.90;;;;;;4974327;28;20046;-65
2022/06/06 03:37:19;;;;;;;8.43;3.67;;;15.40;99.90;;;;;;4974291;28;20074;-65
2022/06/06 03:40:06;;;;;;;4.60;3.70;;;15.30;99.90;;;;;;4974291;28;20410;-66
2022/06/06 03:43:17;;;;;;;8.40;4.15;;;15.40;99.90;;;;;;4974293;28;20051;-66
2022/06/06 03:46:09;;;;;;;6.72;3.70;;;15.50;99.90;;;;;;4967947;28;20462;-65
2022/06/06 03:48:53;;;;;;;8.25;4.22;;;15.60;99.90;;;;;;4973783;28;20042;-66
2022/06/06 03:51:45;;;;;;;5.28;3.75;;;15.70;99.90;;;;;;4974011;28;20446;-66
2022/06/06 03:54:35;;;;;;;11.77;3.83;;;15.70;99.90;;;;;;4974142;28;20069;-65
2022/06/06 03:57:18;;;;;;;6.38;3.63;;;15.70;99.90;;;;;;4972831;28;20062;-66
2022/06/06 03:59:48;;;;;;;5.95;3.70;;;15.70;99.90;;;;;;4974167;28;20042;-65
2022/06/06 04:02:18;;;;;;;7.75;4.20;;;15.70;99.90;;;;;;4974141;28;20039;-66
2022/06/06 04:04:45;;;;;;;;;;;15.70;99.90;;;;;;4974532;28;20050;-66
2022/06/06 04:07:11;;;;;;;10.27;4.25;;;15.80;99.90;;;;;;4973749;28;19916;-66
2022/06/06 04:09:37;;;;;;;9.68;3.88;;;15.80;99.90;;;;;;4973802;28;20066;-65
2022/06/06 04:12:21;;;;;;;13.07;3.80;;;15.90;99.90;;;;;;4990678;28;20085;-65
2022/06/06 04:15:14;;;;;;;4.85;3.35;;;16.00;99.90;;;;;;4993539;28;20425;-66
2022/06/06 04:17:55;;;;;;;6.55;3.88;;;15.90;99.90;;;;;;4993258;28;20124;-66
2022/06/06 04:20:34;;;;;;;3.65;3.20;;;15.80;99.90;;;;;;4993397;28;20054;-66
2022/06/06 04:23:12;;;;;;;7.30;4.20;;;15.80;99.90;;;;;;4993443;28;20046;-66
2022/06/06 04:26:02;;;;;;;6.15;3.58;;;15.50;99.90;;;;;;4993345;28;20405;-66
2022/06/06 04:28:46;;;;;;;9.00;4.07;;;15.30;99.90;;;;;;4992973;28;20046;-66
2022/06/06 04:31:34;;;;;;;13.43;5.07;;;15.40;99.90;;;;;;4992962;28;20041;-66
2022/06/06 04:34:07;;;;;;;5.43;3.97;;;15.50;99.90;;;;;;4993225;28;20046;-66
2022/06/06 04:36:50;;;;;;;5.97;3.78;;;15.70;99.90;;;;;;4996250;28;20576;-66
2022/06/06 04:39:24;;;;;;;5.35;3.58;;;15.70;99.90;;;;;;4995226;28;20561;-66
2022/06/06 04:42:16;;;;;;;4.90;3.85;;;15.80;99.90;;;;;;4996243;28;20038;-66
2022/06/06 04:45:12;;;;;;;7.88;4.28;;;15.80;99.90;;;;;;4996594;28;20041;-66
2022/06/06 04:47:40;;;;;;;7.57;4.00;;;15.90;99.90;;;;;;4990852;28;20100;-66
2022/06/06 04:50:13;;;;;;;6.97;4.20;;;16.00;99.90;;;;;;4996702;28;20042;-66
2022/06/06 04:52:43;;;;;;;11.80;4.18;;;16.00;99.90;;;;;;4996258;28;20046;-66
2022/06/06 04:55:11;;;;;;;7.63;4.57;;;16.10;99.90;;;;;;4996485;28;20042;-66
2022/06/06 04:57:42;;;;;;;5.43;4.03;;;16.20;99.90;;;;;;4996561;28;20402;-66
2022/06/06 05:00:09;;;;;;;6.20;3.80;;;16.10;99.90;;;;;;4996535;28;20038;-66
2022/06/06 05:02:36;;;;;;;6.80;4.03;;;16.10;99.90;;;;;;4996380;28;20041;-66
2022/06/06 05:05:04;;;;;;;5.55;3.85;;;16.10;99.90;;;;;;4996514;28;20046;-67
2022/06/06 05:07:59;;;;;;;6.85;3.78;;;16.10;99.90;;;;;;4996317;28;20041;-66
2022/06/06 05:10:32;;;;;;;7.75;4.43;;;16.20;99.90;;;;;;4996215;28;20049;-66
2022/06/06 05:13:15;;;;;;;4.95;4.03;;;16.10;99.90;;;;;;4995831;28;20525;-66
2022/06/06 05:15:59;;;;;;;6.75;4.28;;;16.20;99.90;;;;;;4996022;28;20058;-66
2022/06/06 05:18:55;;;;;;;5.22;3.78;;;16.30;99.90;;;;;;4995902;28;20486;-66
2022/06/06 05:21:44;;;;;;;4.45;3.90;;;16.30;99.90;;;;;;4995946;28;20041;-66
2022/06/06 05:24:43;;;;;;;9.00;3.70;;;16.50;99.90;;;;;;4990324;28;20481;-66
2022/06/06 05:27:24;;;;;;;9.88;4.18;;;16.50;99.90;;;;;;4995932;28;20038;-66
2022/06/06 05:30:05;;;;;;;8.23;3.75;;;16.50;99.90;;;;;;4995923;28;20034;-66
2022/06/06 05:32:39;;;;;;;9.10;3.85;;;16.60;99.90;;;;;;4994755;28;20061;-66
2022/06/06 05:35:12;;;;;;;5.20;3.55;;;;;;;;;;4995754;28;20117;-66
2022/06/06 05:38:02;;;;;;;5.60;4.03;;;17.00;99.90;;;;;;4994514;28;20126;-66
2022/06/06 05:40:57;;;;;;;5.72;4.03;;;17.10;99.90;;;;;;4993425;28;20042;-66
2022/06/06 05:43:45;;;;;;;7.70;4.07;;;17.20;99.90;;;;;;4993388;28;20038;-66
2022/06/06 05:46:37;;;;;;;6.50;3.88;;;17.30;99.90;;;;;;4994633;28;20039;-66
2022/06/06 05:49:51;;;;;;;9.60;3.88;;;17.40;99.90;;;;;;4995750;28;20102;-66
2022/06/06 05:52:32;;;;;;;5.47;3.88;;;17.30;99.90;;;;;;4990425;28;20046;-65
2022/06/06 05:55:16;;;;;;;6.93;3.53;;;17.40;99.90;;;;;;4995788;28;20042;-66
2022/06/06 05:57:54;;;;;;;7.85;3.67;;;17.50;99.90;;;;;;4995420;28;20169;-66
2022/06/06 06:00:21;;;;;;;6.15;3.70;;;17.40;99.90;;;;;;4995318;28;20054;-66
2022/06/06 06:02:59;;;;;;;7.75;4.00;;;17.20;99.90;;;;;;4994995;28;20490;-66
2022/06/06 06:05:44;;;;;;;7.60;3.85;;;17.30;99.90;;;;;;4995286;28;20100;-66
2022/06/06 06:08:31;;;;;;;6.10;3.55;;;17.90;99.90;;;;;;4995178;28;20494;-66
2022/06/06 06:11:23;;;;;;;5.90;3.50;;;18.00;99.90;;;;;;4987957;28;20059;-66
2022/06/06 06:14:05;;;;;;;4.43;3.25;;;17.90;99.90;;;;;;4977470;28;20050;-66
2022/06/06 06:16:36;;;;;;;5.40;3.38;;;18.10;99.90;;;;;;4994555;28;20062;-66
2022/06/06 06:19:07;;;;;;;3.90;3.22;;;18.60;99.90;;;;;;4994966;28;20573;-66
2022/06/06 06:21:39;;;;;;;7.10;3.45;;;19.10;99.90;;;;;;4994931;28;20073;-66
2022/06/06 06:24:11;;;;;;;8.07;3.90;;;19.50;99.90;;;;;;4994843;28;20132;-67
2022/06/06 06:26:38;;;;;;;5.35;3.20;;;19.40;99.90;;;;;;4994783;28;20050;-66
2022/06/06 06:29:07;;;;;;;6.45;3.65;;;19.60;99.90;;;;;;4994559;28;20084;-66
2022/06/06 06:31:48;;;;;;;8.43;3.70;;;19.70;99.90;;;;;;4994665;28;20405;-67
2022/06/06 06:34:29;;;;;;;6.97;3.42;;;20.10;99.90;;;;;;4994611;28;20504;-66
2022/06/06 06:37:14;;;;;;;6.78;3.13;;;19.90;99.90;;;;;;4994565;28;20124;-66
2022/06/06 06:39:49;;;;;;;4.82;2.90;;;19.80;99.90;;;;;;4991898;28;20046;-66
2022/06/06 06:42:26;;;;;;;6.88;3.30;;;19.80;99.90;;;;;;4994748;28;20034;-66
2022/06/06 06:45:02;;;;;;;10.57;4.18;;;19.80;99.90;;;;;;4994722;28;20406;-66
2022/06/06 06:47:34;;;;;;;7.90;4.22;;;19.90;99.90;;;;;;4994548;28;20575;-66
2022/06/06 06:50:12;;;;;;;5.82;3.15;;;19.80;99.90;;;;;;4994494;28;20085;-66
2022/06/06 06:52:46;;;;;;;3.72;2.65;;;19.70;99.90;;;;;;4994318;28;20532;-66
2022/06/06 06:55:31;;;;;;;7.05;3.60;;;19.70;99.90;;;;;;4994388;28;20044;-66
2022/06/06 06:58:37;;;;;;;4.93;3.30;;;19.70;99.90;;;;;;4994084;28;20038;-66
2022/06/06 07:01:12;;;;;;;8.18;3.53;;;20.00;99.90;;;;;;4982881;28;20050;-66
2022/06/06 07:09:54;;;;;;;4.53;2.67;;;19.80;99.90;;;;;;4993720;28;20045;-67
2022/06/06 07:12:28;;;;;;;5.57;3.23;;;20.40;99.90;;;;;;4993932;28;20065;-66
2022/06/06 07:15:12;;;;;;;7.20;3.00;;;20.40;99.90;;;;;;4993822;28;20277;-66
2022/06/06 07:17:45;;;;;;;5.32;3.10;;;19.90;99.90;;;;;;4975754;28;20042;-65
2022/06/06 07:20:18;;;;;;;6.25;3.47;;;19.90;99.90;;;;;;4991070;28;20532;-66
2022/06/06 07:22:59;;;;;;;4.15;2.90;;;19.40;99.90;;;;;;4991231;28;20053;-66
2022/06/06 07:25:40;;;;;;;5.90;2.85;;;19.40;99.90;;;;;;4991133;28;20053;-66
2022/06/06 07:28:09;;;;;;;5.38;2.80;;;19.20;99.90;;;;;;4991169;28;20042;-66
2022/06/06 07:30:46;;;;;;;4.43;2.35;;;19.60;99.90;;;;;;4991123;28;20846;-66
2022/06/06 07:33:26;;;;;;;6.95;2.92;;;19.80;99.90;;;;;;4991754;28;20093;-66
2022/06/06 07:36:29;;;;;;;5.63;2.85;;;20.10;99.90;;;;;;4992281;28;20050;-66
2022/06/06 07:39:16;;;;;;;5.60;2.70;;;20.90;99.90;;;;;;4991674;28;20038;-66
2022/06/06 07:42:19;;;;;;;16.13;3.85;;;20.80;99.90;;;;;;4991110;28;20042;-66
2022/06/06 07:45:24;;;;;;;10.82;3.42;;;20.60;99.90;;;;;;4972225;28;20043;-66
2022/06/06 07:48:06;;;;;;;4.05;2.78;;;21.00;99.90;;;;;;4980375;28;20034;-67
2022/06/06 07:50:44;;;;;;;6.75;2.92;;;21.10;99.90;;;;;;4991065;28;20077;-66
2022/06/06 07:53:19;;;;;;;5.00;2.60;;;21.20;99.90;;;;;;4991119;28;20521;-66
2022/06/06 07:56:10;;;;;;;5.03;2.70;;;20.60;99.90;;;;;;4991034;28;20053;-66
2022/06/06 07:58:42;;;;;;;4.85;2.10;;;21.10;99.90;;;;;;4986523;28;20053;-66
2022/06/06 08:01:18;;;;;;;4.40;2.40;;;21.20;99.90;;;;;;4990764;28;20544;-66
2022/06/06 08:03:51;;;;;;;3.38;2.53;;;21.70;99.90;;;;;;4991513;28;20052;-66
2022/06/06 08:06:52;;;;;;;3.80;2.42;;;21.70;99.90;;;;;;4991397;28;20121;-66
2022/06/06 08:09:18;;;;;;;;;;;21.80;99.90;;;;;;4990723;28;20042;-66
2022/06/06 08:12:21;;;;;;;3.80;2.60;;;22.20;99.90;;;;;;4995131;28;19960;-66
2022/06/06 08:15:15;;;;;;;9.63;2.45;;;22.30;99.90;;;;;;4995062;28;20038;-66
2022/06/06 08:17:55;;;;;;;4.07;2.47;;;22.10;99.90;;;;;;4994964;28;20038;-66
2022/06/06 08:20:34;;;;;;;4.78;3.00;;;21.50;99.90;;;;;;4995456;28;20038;-66
2022/06/06 08:23:02;;;;;;;5.22;3.22;;;22.10;99.90;;;;;;4995053;28;20034;-66
2022/06/06 08:25:29;;;;;;;3.85;2.60;;;22.50;99.90;;;;;;4995231;28;20532;-67
2022/06/06 08:27:56;;;;;;;4.78;2.33;;;22.80;99.90;;;;;;4994715;28;20040;-66
2022/06/06 08:30:23;;;;;;;3.92;2.40;;;22.50;99.90;;;;;;4994596;28;20034;-66
2022/06/06 08:32:49;;;;;;;7.05;2.95;;;22.70;99.90;;;;;;4982303;28;20093;-66
2022/06/06 08:35:16;;;;;;;5.43;2.72;;;23.10;99.90;;;;;;4975059;28;20545;-66
2022/06/06 08:37:54;;;;;;;6.65;2.50;;;23.10;99.90;;;;;;4974086;28;20126;-66
2022/06/06 08:40:51;;;;;;;5.22;2.70;;;23.20;99.90;;;;;;4980650;28;20046;-66
2022/06/06 08:43:25;;;;;;;4.85;2.70;;;23.00;99.90;;;;;;4993157;28;20620;-66
2022/06/06 08:46:18;;;;;;;4.15;2.60;;;22.80;99.90;;;;;;4991174;28;20105;-66
2022/06/06 08:49:10;;;;;;;7.10;3.05;;;23.30;99.90;;;;;;4985980;28;20088;-66
2022/06/06 08:51:52;;;;;;;6.82;2.72;;;23.00;99.90;;;;;;4993420;28;20414;-66
2022/06/06 08:54:40;;;;;;;8.10;2.70;;;22.90;99.90;;;;;;4993814;28;20042;-66
2022/06/06 08:57:34;;;;;;;7.20;2.97;;;22.50;99.90;;;;;;4993252;28;20042;-66
2022/06/06 09:00:38;;;;;;;3.80;2.28;;;23.00;99.90;;;;;;4993049;28;20757;-66
2022/06/06 09:03:35;;;;;;;7.15;2.58;;;23.40;99.90;;;;;;4977209;28;20034;-66
2022/06/06 09:06:33;;;;;;;5.07;2.35;;;23.20;99.90;;;;;;4994114;28;20387;-66
2022/06/06 09:09:25;;;;;;;3.10;2.10;;;24.10;99.90;;;;;;4993502;28;20034;-66
2022/06/06 09:12:19;;;;;;;6.35;2.17;;;23.70;99.90;;;;;;4993654;28;20410;-66
2022/06/06 09:14:59;;;;;;;6.20;2.50;;;23.50;99.90;;;;;;4994712;28;20038;-66
2022/06/06 09:17:28;;;;;;;5.78;2.60;;;23.30;99.90;;;;;;4995308;28;20085;-66
2022/06/06 09:20:08;;;;;;;4.13;1.90;;;22.90;99.90;;;;;;4993241;28;20073;-66
2022/06/06 09:22:52;;;;;;;;;;;22.40;99.90;;;;;;4993125;28;20053;-66
2022/06/06 09:25:30;;;;;;;5.03;2.30;;;22.60;99.90;;;;;;4992516;28;19916;-66
2022/06/06 09:28:05;;;;;;;5.88;2.58;;;22.40;99.90;;;;;;4992062;28;20042;-66
2022/06/06 09:31:01;;;;;;;7.88;2.40;;;22.50;99.90;;;;;;4992626;28;20172;-66
2022/06/06 09:33:32;;;;;;;4.75;2.42;;;22.70;99.90;;;;;;4993028;28;20104;-66
2022/06/06 09:36:40;;;;;;;5.18;2.40;;;22.30;99.90;;;;;;4947143;28;1332417;-66
2022/06/06 09:39:13;;;;;;;3.85;2.20;;;;;;;;;;4988602;28;20042;-66
2022/06/06 09:41:43;;;;;;;5.35;2.35;;;23.20;99.90;;;;;;4994923;28;20042;-66
2022/06/06 09:44:34;;;;;;;6.72;2.20;;;23.40;99.90;;;;;;4993771;28;20116;-66
2022/06/06 09:47:00;;;;;;;;;;;23.10;99.90;;;;;;4994262;28;20441;-66
2022/06/06 09:49:47;;;;;;;5.22;3.03;;;23.40;99.90;;;;;;4993608;28;19913;-66
2022/06/06 09:52:43;;;;;;;5.28;2.47;;;23.40;99.90;;;;;;4992801;28;20108;-65
2022/06/06 10:01:20;;;;;;;2.28;2.08;;;22.60;99.90;;;;;;4992834;28;20116;-66
2022/06/06 10:04:15;;;;;;;4.78;2.70;;;22.30;99.90;;;;;;4992088;28;20548;-66
2022/06/06 10:07:08;;;;;;;5.68;2.85;;;22.50;99.90;;;;;;4943809;28;20143;-66
2022/06/06 10:10:00;;;;;;;7.13;2.83;;;23.20;99.90;;;;;;4995558;28;20038;-66
2022/06/06 10:12:32;;;;;;;8.88;4.18;;;22.60;99.90;;;;;;4992939;28;20524;-66
2022/06/06 10:15:07;;;;;;;4.82;2.15;;;23.20;99.90;;;;;;4991692;28;20050;-66
2022/06/06 10:17:51;;;;;;;4.13;2.08;;;24.20;99.90;;;;;;4993237;28;20069;-67
2022/06/06 10:20:38;;;;;;;3.25;1.83;;;24.70;99.90;;;;;;4992338;28;20045;-66
2022/06/06 10:23:41;;;;;;;4.25;2.45;;;24.80;99.90;;;;;;4992775;28;20049;-66
2022/06/06 10:26:31;;;;;;;5.40;2.22;;;24.60;99.90;;;;;;4992534;28;20398;-66
2022/06/06 10:29:21;;;;;;;3.80;2.35;;;24.60;99.90;;;;;;4992204;28;20045;-66
2022/06/06 10:32:05;;;;;;;4.10;2.40;;;24.30;99.10;;;;;;4992706;28;20048;-66
2022/06/06 10:34:48;;;;;;;3.28;2.00;;;23.70;98.70;;;;;;4991230;28;20038;-65
2022/06/06 10:37:45;;;;;;;5.22;2.13;;;23.60;99.90;;;;;;4991410;28;20108;-66
2022/06/06 10:40:39;;;;;;;2.35;2.10;;;24.40;98.70;;;;;;4987102;28;20065;-66
2022/06/06 10:43:32;;;;;;;4.35;2.15;;;24.70;99.70;;;;;;4991850;28;20042;-66
2022/06/06 10:46:17;;;;;;;2.47;1.80;;;25.20;99.90;;;;;;4972101;28;20041;-66
2022/06/06 10:49:17;;;;;;;4.88;2.25;;;25.20;98.10;;;;;;4973230;28;20042;-66
2022/06/06 10:51:58;;;;;;;4.38;1.98;;;23.70;97.80;;;;;;4990829;28;20419;-66
2022/06/06 10:54:55;;;;;;;3.50;2.00;;;23.70;98.40;;;;;;4992404;28;20065;-66
2022/06/06 10:57:42;;;;;;;5.47;2.40;;;24.70;99.60;;;;;;4992939;28;20035;-66
2022/06/06 11:00:54;;;;;;;4.25;2.35;;;25.30;98.70;;;;;;4990867;28;20264;-66
2022/06/06 11:03:39;;;;;;;6.57;2.45;;;25.80;99.80;;;;;;4972986;28;20049;-66
2022/06/06 11:06:43;;;;;;;3.47;1.85;;;26.00;97.70;;;;;;4990294;28;20042;-65
2022/06/06 11:09:29;;;;;;;2.90;2.10;;;26.20;96.20;;;;;;4982590;28;20039;-66
2022/06/06 11:12:36;;;;;;;3.03;1.92;;;25.50;96.10;;;;;;4973505;28;20494;-65
2022/06/06 11:15:04;;;;;;;3.75;1.85;;;25.90;96.30;;;;;;4980417;28;20046;-66
2022/06/06 11:17:39;;;;;;;3.38;1.80;;;26.20;95.80;;;;;;4983443;28;20034;-66
2022/06/06 11:20:44;;;;;;;2.45;1.75;;;26.40;96.50;;;;;;4989710;28;20074;-66
2022/06/06 11:24:12;;;;;;;4.43;1.60;;;26.10;93.80;;;;;;4991195;28;20045;-66
2022/06/06 11:26:57;;;;;;;2.50;1.65;;;25.40;94.10;;;;;;4931725;29;20048;-66
2022/06/06 11:29:23;;;;;;;2.65;1.63;;;25.30;95.70;;;;;;4941897;29;20062;-65
2022/06/06 11:32:07;;;;;;;4.18;1.80;;;25.50;95.00;;;;;;4983131;28;20046;-66
2022/06/06 11:35:08;;;;;;;2.53;1.48;;;25.50;94.00;;;;;;4990352;28;20057;-66
2022/06/06 11:38:06;;;;;;;3.30;2.33;;;25.50;95.10;;;;;;4991972;28;20133;-65
2022/06/06 11:40:50;;;;;;;4.57;1.92;;;24.90;94.30;;;;;;4990646;28;20053;-65
2022/06/06 11:43:28;;;;;;;3.38;1.80;;;24.80;94.30;;;;;;4992859;28;20087;-65
2022/06/06 11:46:06;;;;;;;6.13;1.90;;;24.60;94.00;;;;;;4990831;28;20125;-65
2022/06/06 11:49:01;;;;;;;6.93;1.67;;;25.00;95.50;;;;;;4991401;28;20030;-66
2022/06/06 11:51:48;;;;;;;2.88;1.73;;;25.30;95.40;;;;;;4990665;28;20075;-66
2022/06/06 11:54:27;;;;;;;3.20;2.05;;;25.10;94.40;;;;;;4990722;28;20432;-66
2022/06/06 11:57:29;;;;;;;5.45;2.55;;;24.80;94.70;;;;;;4990958;28;20038;-66
2022/06/06 12:00:28;;;;;;;3.03;1.90;;;24.50;93.90;;;;;;4990565;28;20038;-67
2022/06/06 12:03:12;;;;;;;5.00;2.20;;;24.50;93.70;;;;;;4990935;28;20047;-66
2022/06/06 12:06:09;;;;;;;2.33;1.40;;;24.60;94.10;;;;;;4991971;28;20125;-65
2022/06/06 12:09:00;;;;;;;2.47;1.48;;;24.70;93.40;;;;;;4977501;28;20041;-65
2022/06/06 12:11:29;;;;;;;;;;;25.00;92.30;;;;;;4991741;28;20125;-65
2022/06/06 12:14:44;;;;;;;18.47;3.00;;;24.80;93.00;;;;;;4991858;28;19918;-65
2022/06/06 12:17:30;;;;;;;7.15;2.05;;;25.00;92.80;;;;;;4990895;28;20034;-66
2022/06/06 12:20:05;;;;;;;14.32;2.40;;;24.80;92.60;;;;;;4990825;28;20053;-65
2022/06/06 12:22:43;;;;;;;2.63;1.40;;;24.70;93.20;;;;;;4991206;28;20502;-65
2022/06/06 12:25:31;;;;;;;144.07;20.27;;;25.00;92.50;;;;;;4990974;28;20067;-66
2022/06/06 12:28:07;;;;;;;5.90;1.58;;;25.10;92.20;;;;;;4990203;28;20084;-65
2022/06/06 12:30:57;;;;;;;4.05;1.65;;;25.30;91.60;;;;;;4991770;28;20039;-65
2022/06/06 12:33:42;;;;;;;5.18;2.00;;;25.40;91.10;;;;;;4992508;28;20054;-65
2022/06/06 12:36:14;;;;;;;4.07;1.52;;;25.40;90.80;;;;;;4988627;28;20053;-65
2022/06/06 12:39:10;;;;;;;1.65;1.20;;;25.10;91.80;;;;;;4991528;28;20121;-65
2022/06/06 12:41:57;;;;;;;3.30;1.17;;;25.20;91.70;;;;;;4991078;28;20042;-65
2022/06/06 12:44:29;;;;;;;4.78;1.30;;;25.40;90.80;;;;;;4990950;28;20085;-65
2022/06/06 12:47:15;;;;;;;2.95;1.50;;;25.40;91.30;;;;;;4990913;28;20044;-65
2022/06/06 12:49:44;;;;;;;2.78;1.63;;;25.90;91.20;;;;;;4971064;28;20069;-65
2022/06/06 12:52:28;;;;;;;2.50;1.20;;;25.80;90.60;;;;;;4992566;28;20474;-65
2022/06/06 12:55:32;;;;;;;2.47;1.50;;;25.90;91.50;;;;;;4992324;28;20549;-65
2022/06/06 12:58:27;;;;;;;2.15;1.38;;;26.30;91.70;;;;;;4996778;28;20445;-65
2022/06/06 13:04:21;;;;;;;3.10;1.50;;;25.90;91.40;;;;;;4994572;28;20038;-65
2022/06/06 13:07:02;;;;;;;2.00;1.50;;;25.90;90.40;;;;;;4996159;28;20050;-65
2022/06/06 13:09:41;;;;;;;4.30;1.13;;;26.10;92.50;;;;;;4996720;28;20042;-65
2022/06/06 13:12:31;;;;;;;2.40;1.60;;;26.20;91.60;;;;;;4996451;28;20042;-65
2022/06/06 13:15:02;;;;;;;1.92;1.40;;;26.10;92.40;;;;;;4995751;28;20093;-63
2022/06/06 13:17:58;;;;;;;1.80;1.27;;;26.30;91.50;;;;;;4996228;28;20089;-63
2022/06/06 13:20:36;;;;;;;3.25;1.25;;;26.20;90.00;;;;;;4996373;28;20042;-63
2022/06/06 13:23:25;;;;;;;2.25;1.20;;;25.60;88.90;;;;;;4994829;28;20456;-62
2022/06/06 13:26:14;;;;;;;2.33;1.47;;;25.70;88.80;;;;;;4994514;28;20035;-62
2022/06/06 13:28:55;;;;;;;2.45;1.30;;;25.80;90.40;;;;;;4993801;28;20281;-62
2022/06/06 13:31:21;;;;;;;3.80;1.92;;;26.00;90.50;;;;;;4994388;28;20394;-62
2022/06/06 13:34:01;;;;;;;4.15;1.95;;;26.20;92.40;;;;;;4994328;28;20054;-62
2022/06/06 13:36:42;;;;;;;4.83;1.97;;;25.70;93.70;;;;;;4994314;28;20050;-62
2022/06/06 13:39:27;;;;;;;5.38;1.58;;;25.60;91.40;;;;;;4993532;28;20406;-64
2022/06/06 13:42:24;;;;;;;3.83;2.30;;;25.70;92.70;;;;;;4994395;28;20375;-65
2022/06/06 13:45:08;;;;;;;4.70;2.20;;;25.60;93.50;;;;;;4943358;28;20525;-64
2022/06/06 13:47:53;;;;;;;1.85;1.45;;;25.30;93.10;;;;;;4993460;28;20069;-64
2022/06/06 13:50:35;;;;;;;4.85;1.80;;;25.20;91.90;;;;;;4993725;28;20117;-65
2022/06/06 13:53:56;;;;;;;3.65;2.20;;;24.90;92.90;;;;;;4993696;28;20081;-65
2022/06/06 13:56:33;;;;;;;3.28;2.17;;;24.90;93.90;;;;;;4991585;28;20066;-65
2022/06/06 13:59:08;;;;;;;2.53;2.05;;;24.90;93.20;;;;;;4992771;28;20133;-65
2022/06/06 14:01:54;;;;;;;4.45;2.60;;;24.50;93.30;;;;;;4993661;28;20117;-65
2022/06/06 14:05:09;;;;;;;2.55;1.95;;;24.20;93.60;;;;;;4995042;28;20042;-65
2022/06/06 14:08:04;;;;;;;3.47;2.08;;;24.00;93.90;;;;;;4994036;28;20042;-65
2022/06/06 14:10:57;;;;;;;3.85;2.20;;;24.20;93.90;;;;;;4991756;28;20038;-65
2022/06/06 14:13:47;;;;;;;11.00;1.83;;;24.40;93.70;;;;;;4993296;28;20133;-65
2022/06/06 14:16:21;;;;;;;6.15;1.70;;;24.50;93.10;;;;;;4993525;28;20040;-65
2022/06/06 14:18:52;;;;;;;4.25;1.83;;;24.50;93.80;;;;;;4993403;28;20136;-65
2022/06/06 14:21:29;;;;;;;3.80;2.20;;;24.70;93.70;;;;;;4993550;28;20042;-65
2022/06/06 14:24:15;;;;;;;2.45;1.80;;;24.40;93.70;;;;;;4992675;28;20409;-65
2022/06/06 14:26:42;;;;;;;4.88;2.55;;;24.40;94.70;;;;;;4993201;28;20050;-65